createdAt,value
2018-09-27T00:01:14.938Z,7.30
2018-09-27T00:06:20.548Z,7.20
2018-09-27T00:11:26.344Z,7.30
2018-09-27T00:16:30.853Z,7.20
2018-09-27T00:21:36.011Z,7.00
2018-09-27T00:26:40.472Z,6.90
2018-09-27T00:53:30.234Z,6.80
2018-09-27T00:58:35.686Z,6.80
2018-09-27T01:03:40.343Z,6.80
2018-09-27T01:08:44.902Z,6.80
2018-09-27T01:13:49.475Z,6.80
2018-09-27T01:18:53.936Z,6.80
2018-09-27T01:23:58.439Z,6.80
2018-09-27T01:29:02.914Z,6.80
2018-09-27T01:34:07.533Z,6.80
2018-09-27T01:39:12.003Z,6.80
2018-09-27T01:44:16.674Z,6.70
2018-09-27T01:49:22.023Z,6.70
2018-09-27T01:54:27.084Z,6.70
2018-09-27T01:59:31.601Z,6.70
2018-09-27T02:04:35.935Z,6.70
2018-09-27T02:09:40.473Z,6.70
2018-09-27T02:14:45.114Z,6.50
2018-09-27T02:19:49.629Z,6.50
2018-09-27T02:24:55.532Z,6.40
2018-09-27T02:29:59.922Z,6.40
2018-09-27T02:35:04.610Z,6.40
2018-09-27T02:40:09.750Z,6.40
2018-09-27T02:45:14.335Z,6.30
2018-09-27T02:50:19.719Z,6.30
2018-09-27T02:55:24.257Z,6.30
2018-09-27T03:00:28.764Z,6.20
2018-09-27T03:05:33.295Z,6.00
2018-09-27T03:10:37.839Z,5.90
2018-09-27T03:15:42.609Z,5.90
2018-09-27T03:20:47.125Z,5.90
2018-09-27T03:25:51.658Z,5.90
2018-09-27T03:30:55.992Z,5.90
2018-09-27T03:36:00.612Z,6.00
2018-09-27T03:41:05.008Z,6.00
2018-09-27T03:46:09.635Z,5.90
2018-09-27T03:51:14.208Z,5.90
2018-09-27T03:56:18.693Z,6.00
2018-09-27T04:01:23.151Z,6.00
2018-09-27T04:06:27.579Z,5.90
2018-09-27T04:11:32.429Z,5.90
2018-09-27T04:16:37.059Z,5.90
2018-09-27T04:21:41.605Z,5.90
2018-09-27T04:26:45.983Z,5.90
2018-09-27T04:31:50.319Z,5.90
2018-09-27T04:36:54.595Z,5.80
2018-09-27T04:41:59.056Z,5.70
2018-09-27T04:47:04.184Z,5.60
2018-09-27T04:52:09.639Z,5.50
2018-09-27T04:57:14.897Z,5.60
2018-09-27T05:02:19.080Z,5.50
2018-09-27T05:07:23.937Z,5.50
2018-09-27T05:12:28.668Z,5.50
2018-09-27T05:17:33.639Z,5.50
2018-09-27T05:22:38.162Z,5.60
2018-09-27T05:27:42.681Z,5.70
2018-09-27T05:32:47.421Z,5.80
2018-09-27T05:37:51.786Z,5.80
2018-09-27T05:42:56.771Z,5.90
2018-09-27T05:48:01.303Z,6.00
2018-09-27T05:53:05.842Z,6.10
2018-09-27T05:58:10.344Z,6.20
2018-09-27T06:03:14.944Z,6.40
2018-09-27T06:08:19.534Z,6.60
2018-09-27T06:13:24.068Z,6.90
2018-09-27T06:18:28.719Z,7.20
2018-09-27T06:23:33.099Z,7.50
2018-09-27T06:28:37.609Z,7.70
2018-09-27T06:33:42.292Z,8.40
2018-09-27T06:38:47.286Z,9.10
2018-09-27T06:43:52.055Z,9.60
2018-09-27T06:48:57.125Z,9.70
2018-09-27T06:54:01.572Z,9.70
2018-09-27T06:59:05.763Z,9.90
2018-09-27T07:04:10.196Z,10.00
2018-09-27T07:09:15.449Z,10.20
2018-09-27T07:14:19.694Z,10.40
2018-09-27T07:19:24.221Z,10.50
2018-09-27T07:24:28.536Z,10.70
2018-09-27T07:29:32.985Z,11.10
2018-09-27T07:34:37.879Z,11.30
2018-09-27T07:39:42.558Z,11.50
2018-09-27T07:44:47.172Z,11.80
2018-09-27T07:49:51.951Z,12.10
2018-09-27T07:54:56.611Z,12.20
2018-09-27T08:00:01.152Z,12.50
2018-09-27T08:05:05.761Z,12.80
2018-09-27T08:10:10.146Z,12.80
2018-09-27T08:15:14.908Z,12.70
2018-09-27T08:20:19.428Z,12.80
2018-09-27T08:25:23.846Z,12.90
2018-09-27T08:30:28.569Z,12.50
2018-09-27T08:35:33.556Z,12.60
2018-09-27T08:40:38.067Z,12.90
2018-09-27T08:45:42.690Z,13.20
2018-09-27T08:50:48.384Z,13.30
2018-09-27T08:55:52.951Z,13.60
2018-09-27T09:00:58.112Z,13.70
2018-09-27T09:06:03.185Z,14.10
2018-09-27T09:11:07.871Z,13.80
2018-09-27T09:16:12.446Z,13.70
2018-09-27T09:21:16.912Z,13.70
2018-09-27T09:26:21.524Z,14.50
2018-09-27T09:31:26.900Z,14.50
2018-09-27T09:36:31.494Z,14.60
2018-09-27T09:41:35.987Z,14.50
2018-09-27T09:46:40.658Z,13.70
2018-09-27T09:51:45.212Z,13.80
2018-09-27T09:56:49.924Z,13.90
2018-09-27T10:01:54.314Z,13.60
2018-09-27T10:06:59.720Z,13.60
2018-09-27T10:12:04.359Z,14.20
2018-09-27T10:17:09.075Z,14.40
2018-09-27T10:22:14.026Z,14.70
2018-09-27T10:27:18.326Z,14.90
2018-09-27T10:32:23.169Z,14.90
2018-09-27T10:37:28.317Z,14.70
2018-09-27T10:42:33.048Z,15.30
2018-09-27T10:47:38.366Z,15.50
2018-09-27T10:52:43.653Z,16.50
2018-09-27T10:57:48.221Z,18.00
2018-09-27T11:02:53.348Z,20.10
2018-09-27T11:07:57.886Z,20.50
2018-09-27T11:13:02.985Z,20.80
2018-09-27T11:18:07.725Z,21.80
2018-09-27T11:23:12.261Z,22.20
2018-09-27T11:28:16.639Z,22.80
2018-09-27T11:33:21.933Z,23.00
2018-09-27T11:38:26.463Z,23.40
2018-09-27T11:43:30.863Z,24.30
2018-09-27T11:48:35.425Z,25.10
2018-09-27T11:53:40.099Z,26.30
2018-09-27T11:58:45.539Z,27.70
2018-09-27T12:03:49.953Z,27.10
2018-09-27T12:08:54.976Z,26.70
2018-09-27T12:13:59.769Z,26.80
2018-09-27T12:19:04.840Z,26.80
2018-09-27T12:24:09.664Z,27.10
2018-09-27T12:29:15.757Z,27.30
2018-09-27T12:34:20.313Z,28.20
2018-09-27T12:39:24.736Z,27.30
2018-09-27T12:44:29.336Z,27.10
2018-09-27T12:49:34.336Z,25.80
2018-09-27T12:54:39.239Z,23.20
2018-09-27T12:59:44.278Z,21.90
2018-09-27T13:04:48.746Z,21.10
2018-09-27T13:09:53.301Z,21.00
2018-09-27T13:14:58.134Z,21.20
2018-09-27T13:20:03.115Z,21.50
2018-09-27T13:25:08.095Z,21.70
2018-09-27T13:30:12.798Z,21.40
2018-09-27T13:35:17.454Z,22.00
2018-09-27T13:40:22.488Z,21.40
2018-09-27T13:45:27.043Z,21.30
2018-09-27T13:50:32.380Z,20.90
2018-09-27T13:55:36.830Z,21.00
2018-09-27T14:00:42.225Z,20.90
2018-09-27T14:05:47.316Z,21.00
2018-09-27T14:10:51.881Z,21.10
2018-09-27T14:15:56.877Z,20.90
2018-09-27T14:21:02.954Z,20.80
2018-09-27T14:26:07.860Z,20.80
2018-09-27T14:31:12.781Z,20.80
2018-09-27T14:36:18.545Z,21.10
2018-09-27T14:41:23.138Z,22.00
2018-09-27T14:46:27.677Z,22.00
2018-09-27T14:51:32.373Z,21.50
2018-09-27T14:56:38.358Z,21.30
2018-09-27T15:01:44.231Z,21.10
2018-09-27T15:06:49.155Z,21.00
2018-09-27T15:11:53.950Z,20.90
2018-09-27T15:16:58.773Z,21.40
2018-09-27T15:22:06.987Z,21.40
2018-09-27T15:27:11.767Z,22.00
2018-09-27T15:32:16.871Z,23.40
2018-09-27T15:37:21.521Z,25.00
2018-09-27T15:42:26.395Z,25.50
2018-09-27T15:47:31.519Z,24.10
2018-09-27T15:52:36.200Z,22.50
2018-09-27T15:57:40.911Z,21.20
2018-09-27T16:02:46.683Z,20.10
2018-09-27T16:07:51.951Z,19.80
2018-09-27T16:12:57.686Z,19.80
2018-09-27T16:18:03.416Z,19.60
2018-09-27T16:23:08.079Z,19.50
2018-09-27T16:28:12.400Z,19.20
2018-09-27T16:33:16.978Z,18.80
2018-09-27T16:38:21.435Z,18.60
2018-09-27T16:43:26.253Z,18.30
2018-09-27T16:48:30.957Z,17.90
2018-09-27T16:53:35.573Z,17.50
2018-09-27T16:58:40.118Z,17.10
2018-09-27T17:03:45.276Z,16.70
2018-09-27T17:08:49.837Z,16.30
2018-09-27T17:13:54.358Z,15.80
2018-09-27T17:19:01.628Z,15.40
2018-09-27T17:24:06.235Z,15.30
2018-09-27T17:29:10.904Z,15.00
2018-09-27T17:34:15.471Z,14.70
2018-09-27T17:39:20.559Z,14.50
2018-09-27T17:44:25.896Z,14.30
2018-09-27T17:49:31.097Z,14.10
2018-09-27T17:54:35.814Z,14.00
2018-09-27T17:59:40.208Z,13.80
2018-09-27T18:04:44.670Z,13.60
2018-09-27T18:09:49.328Z,13.40
2018-09-27T18:14:53.806Z,13.30
2018-09-27T18:19:58.842Z,13.20
2018-09-27T18:25:03.575Z,13.10
2018-09-27T18:30:08.130Z,12.90
2018-09-27T18:35:13.173Z,12.70
2018-09-27T18:40:17.517Z,12.70
2018-09-27T18:45:22.033Z,12.70
2018-09-27T18:50:26.555Z,12.90
2018-09-27T18:55:31.081Z,12.70
2018-09-27T19:00:37.461Z,12.60
2018-09-27T19:05:42.095Z,12.50
2018-09-27T19:10:46.735Z,12.30
2018-09-27T19:15:51.594Z,12.20
2018-09-27T19:20:56.302Z,12.00
2018-09-27T19:26:00.755Z,12.00
2018-09-27T19:31:05.914Z,12.00
2018-09-27T19:36:10.606Z,12.20
2018-09-27T19:41:15.145Z,12.20
2018-09-27T19:46:20.069Z,12.20
2018-09-27T19:51:24.607Z,12.20
2018-09-27T19:56:29.362Z,12.10
2018-09-27T20:01:34.238Z,12.10
2018-09-27T20:06:39.815Z,12.10
2018-09-27T20:11:44.966Z,12.10
2018-09-27T20:16:49.734Z,12.10
2018-09-27T20:21:54.349Z,12.00
2018-09-27T20:26:58.974Z,11.80
2018-09-27T20:32:04.104Z,11.60
2018-09-27T20:37:09.053Z,11.60
2018-09-27T20:42:13.675Z,11.50
2018-09-27T20:47:18.252Z,11.50
2018-09-27T20:52:22.989Z,11.40
2018-09-27T20:57:27.813Z,11.30
2018-09-27T21:02:32.322Z,11.20
2018-09-27T21:07:36.981Z,11.10
2018-09-27T21:12:41.524Z,11.00
2018-09-27T21:17:46.151Z,11.00
2018-09-27T21:22:50.555Z,10.90
2018-09-27T21:27:55.228Z,10.80
2018-09-27T21:32:59.618Z,10.70
2018-09-27T21:38:04.147Z,10.60
2018-09-27T21:43:08.685Z,10.60
2018-09-27T21:48:13.659Z,10.60
2018-09-27T21:53:22.682Z,10.60
2018-09-27T21:58:32.726Z,10.50
2018-09-27T22:03:53.487Z,10.40
2018-09-27T22:08:59.113Z,10.30
2018-09-27T22:14:11.552Z,10.30
2018-09-27T22:19:31.068Z,10.30
2018-09-27T22:24:50.608Z,10.20
2018-09-27T22:30:01.639Z,10.20
2018-09-27T22:35:18.480Z,10.10
2018-09-27T22:40:33.942Z,10.00
2018-09-27T22:45:54.180Z,9.80
2018-09-27T22:51:04.596Z,9.60
2018-09-27T22:56:15.252Z,9.40
2018-09-27T23:01:32.567Z,9.30
2018-09-27T23:06:52.783Z,9.30
2018-09-27T23:12:03.843Z,9.40
2018-09-27T23:17:08.479Z,9.40
2018-09-27T23:22:12.939Z,9.40
2018-09-27T23:27:17.488Z,9.50
2018-09-27T23:32:22.094Z,9.40
2018-09-27T23:37:26.485Z,9.40
2018-09-27T23:42:31.296Z,9.30
2018-09-27T23:47:36.622Z,9.30
2018-09-27T23:52:41.291Z,9.20
2018-09-27T23:57:46.601Z,9.20
